Time;durP1;ratioP1;P1;durP2;ratioP2;P2;SDS_P1;SDS_P2;PMS_P1;PMS_P2;Temp;Humidity;BMP_temperature;BMP_pressure;BME280_temperature;BME280_humidity;BME280_pressure;Samples;Min_cycle;Max_cycle;Signal;HPM_P1;HPM_P2
2022/07/28 00:02:17;;;;;;;13.77;9.00;;;;;;;24.25;83.25;94358.72;5068586;28;20216;-63
2022/07/28 00:04:43;;;;;;;10.95;8.00;;;;;;;24.11;79.76;94381.50;5069593;28;20266;-63
2022/07/28 00:07:08;;;;;;;12.07;9.35;;;;;;;23.96;83.72;94376.66;5069819;28;20204;-63
2022/07/28 00:09:34;;;;;;;11.68;9.25;;;;;;;23.91;82.52;94384.31;5069827;28;20678;-63
2022/07/28 00:11:59;;;;;;;11.55;9.70;;;;;;;23.95;88.04;94393.25;5069846;28;20212;-63
2022/07/28 00:14:25;;;;;;;11.43;9.07;;;;;;;23.99;90.09;94404.78;5069619;28;20242;-63
2022/07/28 00:16:50;;;;;;;10.65;8.70;;;;;;;23.71;88.30;94411.50;5069408;28;20236;-63
2022/07/28 00:19:16;;;;;;;10.35;8.35;;;;;;;23.62;89.33;94400.59;5070166;28;20640;-63
2022/07/28 00:21:42;;;;;;;14.50;8.73;;;;;;;23.21;97.08;94414.13;5073490;28;20304;-63
2022/07/28 00:24:08;;;;;;;9.85;8.85;;;;;;;22.99;96.81;94418.09;5073034;28;20181;-63
2022/07/28 00:26:34;;;;;;;12.73;8.73;;;;;;;23.21;97.83;94408.94;5073257;28;20204;-64
2022/07/28 00:28:59;;;;;;;12.18;8.90;;;;;;;23.10;96.70;94406.25;5071673;28;20663;-63
2022/07/28 00:31:25;;;;;;;15.07;9.63;;;;;;;23.08;98.70;94398.69;5071497;28;20218;-64
2022/07/28 00:33:51;;;;;;;14.35;9.10;;;;;;;23.10;100.00;94395.88;5055042;28;20185;-63
2022/07/28 00:36:16;;;;;;;12.43;8.82;;;;;;;23.01;100.00;94403.13;5072625;28;20698;-63
2022/07/28 00:38:42;;;;;;;13.88;9.75;;;;;;;22.92;100.00;94388.06;5072574;28;20213;-64
2022/07/28 00:41:10;;;;;;;13.15;9.35;;;;;;;22.96;100.00;94382.25;5071389;28;20295;-63
2022/07/28 00:43:41;;;;;;;12.18;9.10;;;;;;;23.01;100.00;94369.41;5072750;28;20193;-63
2022/07/28 00:46:07;;;;;;;17.25;10.52;;;;;;;22.74;100.00;94349.09;5072787;28;20217;-63
2022/07/28 00:48:37;;;;;;;14.18;9.75;;;;;;;22.70;100.00;94345.34;5072734;28;20191;-63
2022/07/28 00:51:02;;;;;;;14.43;9.88;;;;;;;22.56;100.00;94340.22;5072615;28;20221;-63
2022/07/28 00:53:29;;;;;;;16.30;10.13;;;;;;;22.36;100.00;94369.88;5072629;28;20185;-63
2022/07/28 00:55:54;;;;;;;16.70;10.10;;;;;;;22.20;100.00;94378.91;5072377;28;20294;-63
2022/07/28 00:58:20;;;;;;;14.48;10.50;;;;;;;21.89;100.00;94381.47;5054401;28;20262;-64
2022/07/28 01:00:45;;;;;;;15.38;11.07;;;;;;;21.41;100.00;94411.22;5054407;28;20232;-63
2022/07/28 01:03:11;;;;;;;14.35;10.60;;;;;;;21.19;100.00;94426.16;5054454;28;20673;-64
2022/07/28 01:05:42;;;;;;;11.45;10.25;;;;;;;21.11;100.00;94421.19;5072367;28;20196;-64
2022/07/28 01:08:30;;;;;;;14.65;10.52;;;;;;;21.10;100.00;94429.94;5072367;28;20189;-64
2022/07/28 01:10:56;;;;;;;10.75;9.70;;;;;;;20.99;100.00;94429.72;5072192;28;20201;-64
2022/07/28 01:13:39;;;;;;;12.15;10.05;;;;;;;21.12;100.00;94429.75;5072307;28;20184;-64
2022/07/28 01:16:06;;;;;;;11.25;9.35;;;;;;;21.33;100.00;94426.97;5072086;28;20209;-63
2022/07/28 01:18:49;;;;;;;12.02;9.98;;;;;;;21.64;100.00;94417.53;5054249;28;20215;-63
2022/07/28 01:21:18;;;;;;;11.68;9.50;;;;;;;21.64;100.00;94408.97;5071916;28;20788;-63
2022/07/28 01:24:08;;;;;;;12.02;10.35;;;;;;;21.39;100.00;94414.00;5053945;28;20197;-62
2022/07/28 01:26:55;;;;;;;12.23;10.23;;;;;;;21.18;100.00;94413.44;5054025;28;20732;-63
2022/07/28 01:29:41;;;;;;;12.48;10.57;;;;;;;21.15;100.00;94409.44;5072293;28;20185;-64
2022/07/28 01:32:17;;;;;;;12.75;10.57;;;;;;;21.18;100.00;94395.31;5072027;28;20212;-63
2022/07/28 01:34:56;;;;;;;20.55;16.70;;;;;;;21.12;100.00;94384.00;5053907;28;20289;-64
2022/07/28 01:37:28;;;;;;;18.67;15.55;;;;;;;21.16;100.00;94387.78;5053809;28;20246;-64
2022/07/28 01:39:57;;;;;;;13.98;11.02;;;;;;;21.26;100.00;94379.59;5053737;28;20323;-63
2022/07/28 01:42:28;;;;;;;13.52;11.63;;;;;;;21.43;100.00;94381.56;5071838;28;20212;-63
2022/07/28 01:44:56;;;;;;;14.57;10.90;;;;;;;21.73;100.00;94387.84;5071849;28;20177;-63
2022/07/28 01:47:24;;;;;;;11.95;10.18;;;;;;;21.67;100.00;94378.28;5071687;28;20236;-64
2022/07/28 01:49:51;;;;;;;13.15;10.52;;;;;;;21.53;100.00;94381.91;5071747;28;20189;-64
2022/07/28 01:52:18;;;;;;;12.90;10.75;;;;;;;21.48;100.00;94389.50;5072102;28;20258;-63
2022/07/28 01:54:46;;;;;;;11.65;10.02;;;;;;;21.60;100.00;94392.25;5071766;28;20216;-63
2022/07/28 01:57:13;;;;;;;14.20;10.77;;;;;;;21.77;100.00;94396.78;5072057;28;20609;-63
2022/07/28 01:59:39;;;;;;;11.52;10.18;;;;;;;21.96;100.00;94394.38;5071875;28;20223;-63
2022/07/28 02:02:06;;;;;;;11.85;10.40;;;;;;;21.88;100.00;94410.13;5071669;28;20205;-62
2022/07/28 02:04:35;;;;;;;14.15;11.20;;;;;;;21.76;100.00;94404.75;5071650;28;20680;-62
2022/07/28 02:07:02;;;;;;;12.45;11.15;;;;;;;22.09;100.00;94412.44;5053542;28;20670;-60
2022/07/28 02:09:29;;;;;;;16.25;11.40;;;;;;;21.86;100.00;94401.75;5071455;28;20195;-63
2022/07/28 02:11:56;;;;;;;13.95;10.48;;;;;;;21.72;100.00;94401.00;5071833;28;20266;-60
2022/07/28 02:14:24;;;;;;;15.18;11.20;;;;;;;21.62;100.00;94398.84;5071393;28;20181;-61
2022/07/28 02:17:08;;;;;;;15.90;11.43;;;;;;;21.61;100.00;94402.41;5071681;28;20544;-63
2022/07/28 02:19:36;;;;;;;13.00;10.70;;;;;;;21.60;100.00;94407.78;5071576;28;20196;-61
2022/07/28 02:22:04;;;;;;;13.40;10.88;;;;;;;21.64;100.00;94414.16;5071450;28;20217;-63
2022/07/28 02:24:32;;;;;;;12.30;11.00;;;;;;;21.85;100.00;94413.94;5070083;28;20223;-62
2022/07/28 02:27:00;;;;;;;12.52;11.23;;;;;;;21.77;100.00;94402.97;5053306;28;20309;-62
2022/07/28 02:29:29;;;;;;;15.48;11.25;;;;;;;21.90;100.00;94424.44;5071151;28;20188;-62
2022/07/28 02:32:07;;;;;;;13.00;11.50;;;;;;;21.95;100.00;94421.25;5071761;28;20258;-61
2022/07/28 02:34:37;;;;;;;12.60;11.00;;;;;;;21.92;100.00;94421.69;5071523;28;20188;-63
2022/07/28 02:37:04;;;;;;;13.25;11.10;;;;;;;21.74;100.00;94417.91;5053216;28;20601;-59
2022/07/28 02:39:38;;;;;;;12.50;10.00;;;;;;;21.72;100.00;94422.50;5052835;28;20208;-60
2022/07/28 02:42:12;;;;;;;15.13;10.82;;;;;;;21.93;100.00;94425.84;5070259;28;20208;-61
2022/07/28 02:44:45;;;;;;;13.45;10.38;;;;;;;21.79;100.00;94413.91;5071185;28;20199;-64
2022/07/28 02:47:18;;;;;;;14.07;10.27;;;;;;;21.70;100.00;94408.97;5053104;28;20314;-64
2022/07/28 02:49:45;;;;;;;14.50;10.98;;;;;;;21.78;100.00;94413.13;5053193;28;20646;-63
2022/07/28 02:52:12;;;;;;;12.20;10.68;;;;;;;21.98;100.00;94429.41;5071048;28;20231;-63
2022/07/28 02:54:40;;;;;;;14.15;11.73;;;;;;;22.17;100.00;94433.72;5070959;28;20199;-63
2022/07/28 02:57:07;;;;;;;11.93;10.75;;;;;;;21.96;100.00;94417.69;5071314;28;20209;-63
2022/07/28 02:59:34;;;;;;;12.65;11.07;;;;;;;21.96;100.00;94428.81;5070837;28;20597;-63
2022/07/28 03:02:01;;;;;;;12.07;10.88;;;;;;;21.94;100.00;94433.41;5071195;28;20770;-60
2022/07/28 03:07:12;;;;;;;12.68;10.52;;;;;;;22.31;100.00;94448.22;5070736;28;20291;-60
2022/07/28 03:09:46;;;;;;;12.98;11.07;;;;;;;22.24;100.00;94449.25;5070862;28;20275;-62
2022/07/28 03:12:12;;;;;;;13.27;10.68;;;;;;;22.22;100.00;94449.44;5052637;28;20215;-62
2022/07/28 03:14:38;;;;;;;12.38;10.95;;;;;;;22.11;100.00;94450.09;5052474;28;20203;-62
2022/07/28 03:17:04;;;;;;;15.82;11.38;;;;;;;22.06;100.00;94443.94;5071115;28;20224;-61
2022/07/28 03:19:30;;;;;;;14.85;11.80;;;;;;;21.90;100.00;94434.81;5070433;28;20212;-62
2022/07/28 03:21:55;;;;;;;12.57;11.10;;;;;;;21.90;100.00;94442.56;5052597;28;20216;-62
2022/07/28 03:24:24;;;;;;;12.00;10.73;;;;;;;21.93;100.00;94443.97;5070475;28;20669;-64
2022/07/28 03:27:30;;;;;;;12.60;10.75;;;;;;;21.78;100.00;94436.41;5052403;28;20220;-63
2022/07/28 03:30:04;;;;;;;14.07;11.38;;;;;;;21.67;100.00;94424.09;5058759;28;20205;-63
2022/07/28 03:32:33;;;;;;;17.55;10.13;;;;;;;21.71;100.00;94435.66;5070220;28;20189;-63
2022/07/28 03:35:00;;;;;;;13.52;11.38;;;;;;;21.64;100.00;94438.25;5070350;28;20677;-61
2022/07/28 03:37:41;;;;;;;11.25;10.05;;;;;;;21.49;100.00;94442.81;5070216;28;20300;-64
2022/07/28 03:40:10;;;;;;;12.23;10.38;;;;;;;21.55;100.00;94438.66;5070320;28;20347;-63
2022/07/28 03:42:38;;;;;;;14.35;10.77;;;;;;;21.43;100.00;94432.50;5070220;28;20192;-63
2022/07/28 03:45:04;;;;;;;12.55;11.05;;;;;;;21.25;100.00;94414.22;5069996;28;20177;-63
2022/07/28 03:47:36;;;;;;;14.75;11.52;;;;;;;21.27;100.00;94425.94;5069994;28;20219;-63
2022/07/28 03:50:02;;;;;;;12.50;11.05;;;;;;;21.19;100.00;94427.97;5052034;28;20185;-63
2022/07/28 03:52:28;;;;;;;13.38;10.68;;;;;;;21.04;100.00;94414.44;5070024;28;20221;-63
2022/07/28 03:54:53;;;;;;;10.77;9.68;;;;;;;20.96;100.00;94415.41;5073080;28;20541;-63
2022/07/28 03:57:18;;;;;;;18.30;11.25;;;;;;;20.80;100.00;94395.91;5073657;28;20277;-63
2022/07/28 03:59:44;;;;;;;14.45;11.75;;;;;;;20.89;100.00;94388.75;5073734;28;20204;-63
2022/07/28 04:02:09;;;;;;;13.65;10.77;;;;;;;21.01;100.00;94389.72;5073864;28;20220;-64
2022/07/28 04:04:35;;;;;;;13.10;11.68;;;;;;;21.03;100.00;94380.03;5081264;22;20543;-63
2022/07/28 04:07:00;;;;;;;12.35;10.88;;;;;;;21.14;100.00;94374.25;5073377;28;20850;-63
2022/07/28 04:09:26;;;;;;;13.88;11.40;;;;;;;21.16;100.00;94369.69;5055202;28;20667;-63
2022/07/28 04:11:52;;;;;;;17.35;11.75;;;;;;;21.25;100.00;94359.94;5073220;28;20697;-62
2022/07/28 04:14:17;;;;;;;14.18;12.00;;;;;;;21.05;100.00;94341.06;5073797;28;20629;-63
2022/07/28 04:16:43;;;;;;;14.77;11.38;;;;;;;21.18;100.00;94341.84;5073198;28;20201;-62
2022/07/28 04:19:09;;;;;;;12.10;10.85;;;;;;;21.11;100.00;94341.03;5055500;28;20212;-62
2022/07/28 04:21:34;;;;;;;12.98;11.65;;;;;;;21.24;100.00;94343.59;5073330;28;20212;-62
2022/07/28 04:24:00;;;;;;;13.18;10.48;;;;;;;21.31;100.00;94336.63;5055731;28;20207;-63
2022/07/28 04:26:25;;;;;;;11.55;10.38;;;;;;;21.39;100.00;94344.16;5073945;28;20196;-64
2022/07/28 04:28:50;;;;;;;10.80;9.70;;;;;;;21.32;100.00;94343.38;5073536;28;20192;-64
2022/07/28 04:31:16;;;;;;;10.77;9.73;;;;;;;21.18;100.00;94328.91;5073574;28;20201;-62
2022/07/28 04:33:42;;;;;;;10.48;8.75;;;;;;;21.02;100.00;94341.44;5074001;28;20192;-62
2022/07/28 04:36:07;;;;;;;10.40;7.90;;;;;;;20.68;100.00;94358.75;5073745;28;20232;-62
2022/07/28 04:38:33;;;;;;;8.93;7.50;;;;;;;20.45;100.00;94376.41;5073647;28;20593;-62
2022/07/28 04:40:59;;;;;;;10.60;8.25;;;;;;;20.31;100.00;94358.50;5072978;28;20655;-65
2022/07/28 04:43:25;;;;;;;12.43;9.95;;;;;;;20.19;100.00;94366.03;5073485;28;20262;-66
2022/07/28 04:45:50;;;;;;;15.48;11.25;;;;;;;20.21;100.00;94389.06;5073377;28;20201;-65
2022/07/28 04:48:16;;;;;;;14.52;12.95;;;;;;;20.08;100.00;94400.91;5055534;28;20283;-64
2022/07/28 04:50:43;;;;;;;17.38;14.55;;;;;;;19.96;100.00;94407.59;5073744;28;20209;-62
2022/07/28 04:53:09;;;;;;;17.58;15.70;;;;;;;19.90;100.00;94413.53;5073328;28;20281;-62
2022/07/28 04:55:37;;;;;;;15.80;13.85;;;;;;;19.91;100.00;94409.97;5073202;28;20252;-61
2022/07/28 04:58:03;;;;;;;17.15;15.40;;;;;;;19.89;100.00;94411.97;5055207;28;20207;-62
2022/07/28 05:00:28;;;;;;;16.20;14.38;;;;;;;19.90;100.00;94421.28;5055183;28;20610;-60
2022/07/28 05:02:53;;;;;;;18.92;14.43;;;;;;;20.21;100.00;94422.63;5055094;28;20193;-62
2022/07/28 05:05:19;;;;;;;16.55;14.48;;;;;;;20.53;100.00;94412.38;5072177;28;20189;-62
2022/07/28 05:07:50;;;;;;;17.00;13.68;;;;;;;20.78;100.00;94407.44;5055064;28;20294;-60
2022/07/28 05:10:16;;;;;;;17.60;13.32;;;;;;;20.80;100.00;94392.53;5073129;28;20203;-65
2022/07/28 05:12:41;;;;;;;14.05;12.45;;;;;;;21.04;100.00;94386.78;5073095;28;20280;-65
2022/07/28 05:15:08;;;;;;;22.75;17.80;;;;;;;21.26;100.00;94377.81;5072928;28;20258;-64
2022/07/28 05:17:35;;;;;;;15.05;13.27;;;;;;;21.42;100.00;94392.91;5073095;28;20212;-61
2022/07/28 05:20:01;;;;;;;19.23;14.43;;;;;;;21.33;100.00;94406.25;5072519;28;20208;-64
2022/07/28 05:22:27;;;;;;;16.25;14.52;;;;;;;21.05;100.00;94413.44;5072887;28;20192;-60
2022/07/28 05:24:53;;;;;;;18.90;15.45;;;;;;;20.63;100.00;94414.56;5072456;28;20177;-65
2022/07/28 05:27:19;;;;;;;18.92;15.23;;;;;;;20.34;100.00;94410.53;5072847;28;20216;-62
2022/07/28 05:29:44;;;;;;;16.45;14.75;;;;;;;20.67;100.00;94418.34;5054379;28;20231;-64
2022/07/28 05:32:11;;;;;;;17.08;14.73;;;;;;;20.91;100.00;94430.69;5071791;28;20240;-60
2022/07/28 05:34:36;;;;;;;17.20;13.63;;;;;;;21.15;100.00;94429.34;5071283;28;20197;-60
2022/07/28 05:37:02;;;;;;;16.65;14.20;;;;;;;21.33;100.00;94443.25;5072434;28;20196;-60
2022/07/28 05:39:30;;;;;;;19.75;15.95;;;;;;;21.08;100.00;94450.03;5072261;28;20217;-60
2022/07/28 05:41:56;;;;;;;19.58;17.48;;;;;;;20.70;100.00;94462.69;5072556;28;20216;-61
2022/07/28 05:44:23;;;;;;;23.65;17.25;;;;;;;20.46;100.00;94465.00;5054565;28;20208;-65
2022/07/28 05:46:49;;;;;;;17.77;15.27;;;;;;;20.43;100.00;94449.88;5071053;28;20227;-65
2022/07/28 05:49:14;;;;;;;18.50;16.10;;;;;;;20.88;100.00;94429.31;5072900;28;20193;-64
2022/07/28 05:51:41;;;;;;;17.60;15.68;;;;;;;21.27;100.00;94425.16;5072453;28;20219;-64
2022/07/28 05:54:07;;;;;;;16.90;14.57;;;;;;;21.38;100.00;94429.72;5072545;28;20200;-63
2022/07/28 05:56:33;;;;;;;18.90;16.00;;;;;;;21.62;100.00;94426.50;5072296;28;20208;-63
2022/07/28 05:58:59;;;;;;;17.50;15.68;;;;;;;21.28;100.00;94427.53;5072006;28;20212;-63
2022/07/28 06:01:25;;;;;;;18.50;15.85;;;;;;;21.42;100.00;94433.50;5072000;28;20256;-63
2022/07/28 06:03:51;;;;;;;17.13;14.23;;;;;;;21.48;100.00;94430.91;5054191;28;20257;-65
2022/07/28 06:06:18;;;;;;;17.30;14.88;;;;;;;21.75;100.00;94437.59;5053887;28;20197;-63
2022/07/28 06:08:46;;;;;;;18.05;15.68;;;;;;;22.03;100.00;94441.75;5072210;28;20205;-63
2022/07/28 06:11:15;;;;;;;19.52;15.07;;;;;;;22.24;100.00;94454.44;5071756;28;20196;-66
2022/07/28 06:13:41;;;;;;;24.17;13.90;;;;;;;22.49;100.00;94450.09;5072015;28;20200;-66
2022/07/28 06:16:07;;;;;;;14.85;12.57;;;;;;;22.72;100.00;94447.81;5071605;28;20197;-62
2022/07/28 06:18:32;;;;;;;14.35;12.93;;;;;;;22.92;100.00;94456.28;5071774;28;20209;-62
2022/07/28 06:20:58;;;;;;;14.88;13.38;;;;;;;23.05;100.00;94460.53;5071587;28;20330;-61
2022/07/28 06:23:23;;;;;;;16.42;13.05;;;;;;;23.08;100.00;94457.53;5071606;28;20192;-62
2022/07/28 06:25:50;;;;;;;20.52;16.30;;;;;;;23.03;100.00;94465.16;5071932;28;20204;-63
2022/07/28 06:28:17;;;;;;;14.93;13.05;;;;;;;23.28;100.00;94463.38;5071827;28;20196;-63
2022/07/28 06:30:43;;;;;;;13.52;12.23;;;;;;;23.31;100.00;94478.53;5053405;28;20217;-62
2022/07/28 06:33:08;;;;;;;14.25;12.85;;;;;;;23.44;100.00;94475.03;5071713;28;20709;-63
2022/07/28 06:35:34;;;;;;;15.52;14.05;;;;;;;23.64;100.00;94496.44;5071452;28;20674;-62
2022/07/28 06:37:59;;;;;;;15.85;14.35;;;;;;;23.14;100.00;94491.22;5071622;28;20197;-61
2022/07/28 06:40:25;;;;;;;15.18;13.45;;;;;;;22.93;100.00;94452.66;5071006;28;20217;-62
2022/07/28 06:42:50;;;;;;;13.98;12.40;;;;;;;22.63;100.00;94454.25;5053314;28;20196;-61
2022/07/28 06:45:17;;;;;;;13.95;12.65;;;;;;;22.65;100.00;94449.66;5071274;28;20183;-63
2022/07/28 06:47:43;;;;;;;13.05;11.75;;;;;;;22.72;100.00;94447.81;5071185;28;20205;-63
2022/07/28 06:50:08;;;;;;;11.80;10.70;;;;;;;23.14;100.00;94460.09;5079023;22;20749;-63
2022/07/28 06:52:35;;;;;;;12.98;11.68;;;;;;;23.41;100.00;94519.59;5053191;28;20197;-62
2022/07/28 06:55:02;;;;;;;12.50;11.23;;;;;;;23.67;100.00;94490.81;5071566;28;20258;-65
2022/07/28 06:57:28;;;;;;;13.48;12.05;;;;;;;23.73;100.00;94521.13;5053210;28;20283;-62
2022/07/28 06:59:54;;;;;;;15.30;13.48;;;;;;;23.95;100.00;94536.09;5071282;28;20220;-62
2022/07/28 07:02:19;;;;;;;14.38;12.98;;;;;;;24.05;100.00;94520.06;5078410;22;20931;-66
2022/07/28 07:04:46;;;;;;;14.82;13.18;;;;;;;24.00;100.00;94479.09;5071061;28;20658;-64
2022/07/28 07:07:12;;;;;;;16.88;15.15;;;;;;;23.79;100.00;94502.09;5071367;28;20204;-60
2022/07/28 07:09:37;;;;;;;16.67;14.93;;;;;;;23.53;100.00;94508.31;5071074;28;20650;-63
2022/07/28 07:12:03;;;;;;;17.83;16.05;;;;;;;23.97;100.00;94512.50;5070960;28;20338;-62
2022/07/28 07:14:29;;;;;;;18.08;16.45;;;;;;;24.24;100.00;94518.25;5070906;28;20238;-61
2022/07/28 07:16:54;;;;;;;16.23;14.45;;;;;;;24.41;100.00;94529.66;5070947;28;20218;-60
2022/07/28 07:19:20;;;;;;;16.92;14.90;;;;;;;24.21;100.00;94524.69;5071129;28;20204;-61
2022/07/28 07:21:47;;;;;;;17.80;15.15;;;;;;;24.20;100.00;94515.28;5070882;28;20200;-65
2022/07/28 07:24:13;;;;;;;22.73;16.27;;;;;;;24.29;100.00;94532.19;5052803;28;20720;-65
2022/07/28 07:26:39;;;;;;;17.02;14.45;;;;;;;24.28;100.00;94520.19;5070797;28;20627;-65
2022/07/28 07:29:05;;;;;;;13.63;12.25;;;;;;;24.47;100.00;94519.19;5070272;28;20192;-66
2022/07/28 07:31:32;;;;;;;16.02;14.48;;;;;;;24.61;100.00;94515.41;5070664;28;20192;-65
2022/07/28 07:33:57;;;;;;;15.93;14.20;;;;;;;24.68;100.00;94547.34;5071145;28;20184;-62
2022/07/28 07:36:23;;;;;;;16.65;14.98;;;;;;;24.90;100.00;94517.28;5070965;28;20262;-62
2022/07/28 07:38:48;;;;;;;16.63;14.98;;;;;;;24.73;100.00;94515.50;5070933;28;20223;-62
2022/07/28 07:41:14;;;;;;;18.52;14.57;;;;;;;24.68;100.00;94515.34;5070655;28;20208;-61
2022/07/28 07:43:39;;;;;;;15.13;13.60;;;;;;;24.77;100.00;94548.66;5052757;28;20188;-60
2022/07/28 07:46:05;;;;;;;19.60;16.30;;;;;;;24.87;100.00;94600.16;5070530;28;20205;-60
2022/07/28 07:48:31;;;;;;;22.63;16.67;;;;;;;25.07;100.00;94605.13;5070478;28;20200;-61
2022/07/28 07:50:56;;;;;;;16.88;15.13;;;;;;;24.97;100.00;94567.41;5070817;28;20303;-62
2022/07/28 07:53:23;;;;;;;16.70;14.93;;;;;;;24.36;100.00;94521.72;5070602;28;20180;-63
2022/07/28 07:55:49;;;;;;;17.13;15.32;;;;;;;24.31;100.00;94532.75;5070481;28;20277;-63
2022/07/28 07:58:14;;;;;;;16.98;15.20;;;;;;;24.36;100.00;94556.28;5070716;28;20189;-65
2022/07/28 08:00:40;;;;;;;17.50;15.00;;;;;;;24.34;100.00;94534.16;5070574;28;20215;-60
2022/07/28 08:03:05;;;;;;;19.50;16.23;;;;;;;24.41;100.00;94566.03;5070701;28;20266;-61
2022/07/28 08:05:31;;;;;;;19.88;15.40;;;;;;;24.41;100.00;94558.25;5070381;28;20201;-60
2022/07/28 08:07:56;;;;;;;17.17;15.35;;;;;;;24.38;100.00;94582.84;5070489;28;20223;-60
2022/07/28 08:10:22;;;;;;;15.27;13.77;;;;;;;24.34;100.00;94597.28;5041437;22;20703;-60
2022/07/28 08:12:48;;;;;;;16.90;14.85;;;;;;;24.45;100.00;94607.00;5050434;28;20188;-63
2022/07/28 08:15:13;;;;;;;17.33;15.05;;;;;;;24.60;100.00;94606.66;5050025;28;20185;-65
2022/07/28 08:17:38;;;;;;;16.77;14.50;;;;;;;24.70;100.00;94619.94;5050745;28;20231;-62
2022/07/28 08:20:04;;;;;;;17.73;14.32;;;;;;;24.78;100.00;94630.06;5050610;28;20750;-61
2022/07/28 08:22:30;;;;;;;19.85;17.67;;;;;;;24.93;100.00;94607.06;5050428;28;20173;-60
2022/07/28 08:24:59;;;;;;;16.73;15.02;;;;;;;24.90;100.00;94587.50;5050138;28;20190;-65
2022/07/28 08:27:25;;;;;;;17.08;14.82;;;;;;;24.73;100.00;94576.09;5032714;28;20216;-65
2022/07/28 08:29:50;;;;;;;18.35;16.35;;;;;;;24.51;100.00;94594.94;5050124;28;20194;-68
2022/07/28 08:32:16;;;;;;;18.30;14.82;;;;;;;24.24;100.00;94539.81;5048775;28;20211;-61
2022/07/28 08:34:41;;;;;;;20.25;16.05;;;;;;;24.27;100.00;94508.22;5048682;28;20688;-62
2022/07/28 08:37:07;;;;;;;17.25;15.32;;;;;;;24.09;100.00;94523.81;5076266;22;20290;-65
2022/07/28 08:39:34;;;;;;;15.23;13.65;;;;;;;24.03;100.00;94503.88;5070052;28;20269;-64
2022/07/28 08:42:14;;;;;;;15.32;13.73;;;;;;;24.22;100.00;94562.63;5073151;28;20334;-62
2022/07/28 08:45:02;;;;;;;16.27;13.15;;;;;;;24.48;100.00;94587.56;5073657;28;20276;-61
2022/07/28 08:47:30;;;;;;;13.82;12.43;;;;;;;24.63;100.00;94608.78;5073705;28;20177;-62
2022/07/28 08:49:58;;;;;;;17.40;14.07;;;;;;;24.91;100.00;94679.34;5073609;28;20216;-63
2022/07/28 08:52:27;;;;;;;16.75;14.15;;;;;;;24.79;100.00;94678.47;5073348;28;20215;-64
2022/07/28 08:54:55;;;;;;;15.43;13.75;;;;;;;24.61;100.00;94624.63;5073496;28;20662;-61
2022/07/28 08:57:41;;;;;;;16.98;12.05;;;;;;;24.71;100.00;94609.31;5073130;28;20205;-60
2022/07/28 09:00:11;;;;;;;17.10;15.32;;;;;;;24.75;100.00;94636.50;5073174;28;20307;-61
2022/07/28 09:02:48;;;;;;;14.60;13.07;;;;;;;24.91;100.00;94671.53;5073621;28;20238;-62
2022/07/28 09:05:14;;;;;;;17.35;14.05;;;;;;;25.12;100.00;94675.50;5073362;28;20267;-64
2022/07/28 09:07:40;;;;;;;16.80;14.15;;;;;;;25.27;100.00;94699.38;5073194;28;20192;-63
2022/07/28 09:10:10;;;;;;;14.75;13.20;;;;;;;25.43;100.00;94685.78;5072747;28;20193;-63
2022/07/28 09:12:38;;;;;;;14.48;12.68;;;;;;;25.58;100.00;94663.53;5073159;28;20565;-61
2022/07/28 09:15:06;;;;;;;17.75;14.98;;;;;;;25.62;100.00;94669.88;5073013;28;20276;-61
2022/07/28 09:17:32;;;;;;;17.42;15.52;;;;;;;25.82;100.00;94679.25;5072840;28;20193;-65
2022/07/28 09:19:58;;;;;;;17.20;14.85;;;;;;;25.55;100.00;94669.16;5073006;28;20228;-63
2022/07/28 09:22:23;;;;;;;16.90;15.02;;;;;;;25.40;100.00;94644.50;5072698;28;20213;-62
2022/07/28 09:24:49;;;;;;;15.25;13.73;;;;;;;25.34;100.00;94612.34;5072853;28;20260;-62
2022/07/28 09:27:15;;;;;;;21.48;15.13;;;;;;;25.42;100.00;94593.03;5072871;28;20716;-62
2022/07/28 09:29:44;;;;;;;16.27;14.10;;;;;;;25.17;100.00;94567.13;5072770;28;20181;-65
2022/07/28 09:32:12;;;;;;;18.70;15.88;;;;;;;25.04;100.00;94561.31;5072859;28;20205;-61
2022/07/28 09:34:49;;;;;;;16.92;15.18;;;;;;;25.18;100.00;94567.94;5072412;28;20262;-62
2022/07/28 09:37:19;;;;;;;17.10;15.27;;;;;;;25.35;100.00;94574.88;5072251;28;20197;-61
2022/07/28 09:39:46;;;;;;;16.23;14.52;;;;;;;25.48;100.00;94551.28;5072474;28;20594;-62
2022/07/28 09:42:12;;;;;;;19.40;16.83;;;;;;;25.69;100.00;94570.81;5072358;28;20262;-61
2022/07/28 09:44:38;;;;;;;18.85;15.15;;;;;;;25.66;100.00;94618.13;5072480;28;20647;-61
2022/07/28 09:47:23;;;;;;;19.35;16.33;;;;;;;25.66;100.00;94616.31;5072412;28;20242;-62
2022/07/28 09:49:50;;;;;;;18.67;16.45;;;;;;;25.57;100.00;94655.94;5072482;28;20698;-62
2022/07/28 09:52:29;;;;;;;19.15;17.00;;;;;;;25.39;100.00;94645.53;5071738;28;20209;-61
2022/07/28 09:55:01;;;;;;;19.02;15.85;;;;;;;25.21;100.00;94596.91;5072367;28;20193;-61
2022/07/28 09:57:27;;;;;;;18.35;15.38;;;;;;;25.25;100.00;94573.84;5072281;28;20568;-63
2022/07/28 09:59:53;;;;;;;20.02;17.23;;;;;;;25.62;100.00;94617.00;5072481;28;20628;-62
2022/07/28 10:02:24;;;;;;;21.60;17.63;;;;;;;25.64;100.00;94607.94;5054122;28;20200;-63
2022/07/28 10:04:51;;;;;;;22.00;17.45;;;;;;;25.98;100.00;94616.81;5072452;28;20200;-61
2022/07/28 10:07:17;;;;;;;22.67;18.73;;;;;;;26.17;100.00;94677.50;5072048;28;20286;-61
2022/07/28 10:09:43;;;;;;;24.13;20.27;;;;;;;26.67;100.00;94712.56;5072193;28;20646;-65
2022/07/28 10:12:17;;;;;;;21.45;18.60;;;;;;;27.13;100.00;94719.63;5053867;28;20265;-65
2022/07/28 10:14:47;;;;;;;20.92;17.90;;;;;;;26.87;97.91;94752.19;5072100;28;20223;-65
2022/07/28 10:17:24;;;;;;;16.48;14.73;;;;;;;26.78;97.63;94742.34;5053941;28;20300;-64
2022/07/28 10:19:50;;;;;;;14.48;12.95;;;;;;;27.26;92.87;94813.34;5072014;28;20567;-66
2022/07/28 10:22:17;;;;;;;13.75;12.20;;;;;;;27.53;91.89;94824.94;5071696;28;20220;-66
2022/07/28 10:24:45;;;;;;;11.95;10.50;;;;;;;27.82;90.00;94836.22;5071889;28;20204;-65
2022/07/28 10:27:11;;;;;;;12.25;10.27;;;;;;;27.86;90.70;94811.22;5071697;28;20632;-63
2022/07/28 10:29:38;;;;;;;10.95;10.00;;;;;;;28.39;87.48;94850.16;5071956;28;20217;-63
2022/07/28 10:32:05;;;;;;;10.27;9.38;;;;;;;29.00;85.94;94884.22;5071555;28;20265;-67
2022/07/28 10:34:41;;;;;;;9.75;8.85;;;;;;;29.37;72.24;94916.00;5071646;28;20286;-64
2022/07/28 10:37:12;;;;;;;9.05;8.25;;;;;;;29.78;72.29;94813.31;5071553;28;20702;-63
2022/07/28 10:39:47;;;;;;;10.52;8.27;;;;;;;29.97;63.30;94986.91;5071356;28;20251;-62
2022/07/28 10:42:14;;;;;;;10.40;8.02;;;;;;;30.05;61.73;94923.53;5053351;28;20251;-61
2022/07/28 10:44:42;;;;;;;9.75;8.82;;;;;;;30.33;58.74;94958.28;5071550;28;20731;-60
2022/07/28 10:47:12;;;;;;;9.52;8.60;;;;;;;30.73;62.66;94852.09;5053253;28;20270;-61
2022/07/28 10:49:40;;;;;;;9.23;8.40;;;;;;;30.83;57.59;94947.53;5071205;28;20195;-61
2022/07/28 10:52:07;;;;;;;9.38;8.45;;;;;;;30.94;57.07;94951.09;5071404;28;20276;-64
2022/07/28 10:54:37;;;;;;;9.98;8.55;;;;;;;30.22;58.36;94884.94;5071148;28;20201;-61
2022/07/28 10:57:06;;;;;;;9.00;8.10;;;;;;;30.34;57.83;94889.00;5069820;28;20702;-62
2022/07/28 11:00:00;;;;;;;10.35;9.00;;;;;;;30.73;59.51;94842.41;5071111;28;20238;-61
2022/07/28 11:02:49;;;;;;;9.98;8.98;;;;;;;30.86;57.60;94894.56;5070881;28;20205;-61
2022/07/28 11:05:35;;;;;;;10.52;9.52;;;;;;;30.85;57.86;94848.31;5071231;28;20181;-61
2022/07/28 11:08:04;;;;;;;11.05;10.05;;;;;;;30.51;61.24;94757.69;5071026;28;20680;-60
2022/07/28 11:10:45;;;;;;;10.52;9.52;;;;;;;30.32;57.60;94861.44;5071204;28;20251;-64
2022/07/28 11:13:31;;;;;;;11.57;10.50;;;;;;;30.07;61.14;94753.59;5071165;28;20242;-64
2022/07/28 11:16:18;;;;;;;11.05;9.98;;;;;;;29.91;59.50;94791.19;5071068;28;20781;-60
2022/07/28 11:19:04;;;;;;;11.57;10.48;;;;;;;29.56;62.75;94711.06;5071019;28;20243;-60
2022/07/28 11:21:30;;;;;;;11.02;9.40;;;;;;;29.80;61.17;94738.63;5070851;28;20216;-64